createdAt,value
2022-09-15T00:02:21.540Z,99383.31
2022-09-15T00:04:48.133Z,99389.94
2022-09-15T00:07:14.665Z,99388.88
2022-09-15T00:09:41.164Z,99391.69
2022-09-15T00:12:07.806Z,99397.16
2022-09-15T00:14:34.407Z,99397.31
2022-09-15T00:17:00.962Z,99389.41
2022-09-15T00:19:27.526Z,99383.38
2022-09-15T00:21:54.002Z,99391.81
2022-09-15T00:24:20.506Z,99385.09
2022-09-15T00:26:47.010Z,99382.50
2022-09-15T00:29:13.476Z,99378.63
2022-09-15T00:31:39.972Z,99381.47
2022-09-15T00:34:07.107Z,99380.72
2022-09-15T00:36:33.954Z,99383.84
2022-09-15T00:39:00.902Z,99388.25
2022-09-15T00:41:27.431Z,99385.31
2022-09-15T00:44:04.123Z,99387.94
2022-09-15T00:46:39.835Z,99382.66
2022-09-15T00:49:12.023Z,99382.38
2022-09-15T00:51:44.551Z,99380.50
2022-09-15T00:54:17.280Z,99377.97
2022-09-15T00:56:45.180Z,99371.66
2022-09-15T00:59:16.946Z,99379.94
2022-09-15T01:01:46.023Z,99365.97
2022-09-15T01:04:14.689Z,99372.09
2022-09-15T01:06:46.273Z,99377.63
2022-09-15T01:09:30.993Z,99384.75
2022-09-15T01:11:58.053Z,99373.81
2022-09-15T01:14:24.718Z,99370.44
2022-09-15T01:17:17.217Z,99377.44
2022-09-15T01:20:43.572Z,99377.47
2022-09-15T01:23:18.625Z,99376.06
2022-09-15T01:26:13.705Z,99372.56
2022-09-15T01:28:46.093Z,99383.69
2022-09-15T01:31:23.747Z,99384.63
2022-09-15T01:34:03.007Z,99380.56
2022-09-15T01:36:48.242Z,99376.72
2022-09-15T01:39:32.965Z,99381.25
2022-09-15T01:42:02.265Z,99378.69
2022-09-15T01:44:43.184Z,99388.50
2022-09-15T01:47:13.839Z,99384.53
2022-09-15T01:49:52.011Z,99384.19
2022-09-15T01:52:21.299Z,99374.41
2022-09-15T01:54:51.855Z,99373.34
2022-09-15T01:57:22.281Z,99378.97
2022-09-15T01:59:50.275Z,99375.81
2022-09-15T02:02:25.539Z,99370.41
2022-09-15T02:05:26.083Z,99380.91
2022-09-15T02:08:08.805Z,99381.22
2022-09-15T02:10:40.173Z,99387.69
2022-09-15T02:13:11.120Z,99378.63
2022-09-15T02:15:43.559Z,99369.06
2022-09-15T02:18:14.142Z,99379.53
2022-09-15T02:20:49.991Z,99384.03
2022-09-15T02:23:28.688Z,99376.75
2022-09-15T02:26:04.963Z,99375.34
2022-09-15T02:28:36.601Z,99377.34
2022-09-15T02:31:05.078Z,99383.03
2022-09-15T02:33:36.904Z,99382.28
2022-09-15T02:36:04.176Z,99387.22
2022-09-15T02:38:37.654Z,99389.03
2022-09-15T02:41:05.793Z,99384.09
2022-09-15T02:43:32.940Z,99372.69
2022-09-15T02:45:59.881Z,99382.69
2022-09-15T02:48:26.427Z,99387.94
2022-09-15T02:50:52.953Z,99392.59
2022-09-15T02:53:19.426Z,99390.66
2022-09-15T02:55:45.889Z,99387.81
2022-09-15T02:58:12.438Z,99392.81
2022-09-15T03:00:39.122Z,99389.00
2022-09-15T03:03:05.642Z,99399.75
2022-09-15T03:05:32.138Z,99407.56
2022-09-15T03:07:58.668Z,99393.84
2022-09-15T03:10:26.253Z,99395.78
2022-09-15T03:12:54.404Z,99400.84
2022-09-15T03:15:23.633Z,99407.34
2022-09-15T03:17:50.368Z,99404.72
2022-09-15T03:20:20.734Z,99411.59
2022-09-15T03:22:48.317Z,99413.47
2022-09-15T03:25:15.722Z,99416.78
2022-09-15T03:27:42.589Z,99413.09
2022-09-15T03:30:10.052Z,99414.69
2022-09-15T03:32:36.732Z,99419.59
2022-09-15T03:35:04.472Z,99426.78
2022-09-15T03:37:31.098Z,99419.63
2022-09-15T03:39:58.034Z,99420.06
2022-09-15T03:42:24.515Z,99417.38
2022-09-15T03:44:51.073Z,99420.34
2022-09-15T03:47:17.591Z,99426.25
2022-09-15T03:49:44.150Z,99426.72
2022-09-15T03:52:10.652Z,99435.84
2022-09-15T03:54:37.187Z,99437.28
2022-09-15T03:57:04.090Z,99435.81
2022-09-15T03:59:30.585Z,99438.28
2022-09-15T04:01:57.221Z,99446.72
2022-09-15T04:04:23.758Z,99441.88
2022-09-15T04:06:50.278Z,99446.72
2022-09-15T04:09:16.785Z,99444.13
2022-09-15T04:11:43.289Z,99451.19
2022-09-15T04:14:09.757Z,99454.31
2022-09-15T04:16:36.439Z,99454.09
2022-09-15T04:19:03.039Z,99452.78
2022-09-15T04:21:31.643Z,99450.50
2022-09-15T04:23:58.305Z,99451.28
2022-09-15T04:26:28.849Z,99459.00
2022-09-15T04:28:55.433Z,99461.16
2022-09-15T04:31:22.061Z,99473.78
2022-09-15T04:33:51.761Z,99470.72
2022-09-15T04:36:21.155Z,99462.84
2022-09-15T04:38:50.472Z,99464.41
2022-09-15T04:41:20.822Z,99470.41
2022-09-15T04:43:47.651Z,99467.44
2022-09-15T04:46:15.120Z,99470.19
2022-09-15T04:48:42.703Z,99469.13
2022-09-15T04:51:12.969Z,99469.59
2022-09-15T04:53:39.562Z,99469.59
2022-09-15T04:56:11.741Z,99476.81
2022-09-15T04:58:46.848Z,99478.63
2022-09-15T05:01:19.285Z,99478.69
2022-09-15T05:03:46.589Z,99475.22
2022-09-15T05:06:21.817Z,99485.88
2022-09-15T05:08:53.634Z,99480.50
2022-09-15T05:11:20.898Z,99481.72
2022-09-15T05:13:48.016Z,99493.06
2022-09-15T05:16:18.569Z,99493.50
2022-09-15T05:18:47.579Z,99493.50
2022-09-15T05:21:16.503Z,99500.78
2022-09-15T05:23:43.667Z,99502.25
2022-09-15T05:26:16.584Z,99501.41
2022-09-15T05:28:43.512Z,99509.94
2022-09-15T05:31:20.204Z,99509.94
2022-09-15T05:33:48.856Z,99518.19
2022-09-15T05:36:17.166Z,99514.81
2022-09-15T05:38:44.294Z,99524.31
2022-09-15T05:41:12.832Z,99531.31
2022-09-15T05:43:40.072Z,99533.53
2022-09-15T05:46:07.508Z,99535.00
2022-09-15T05:48:34.906Z,99537.25
2022-09-15T05:51:01.846Z,99547.03
2022-09-15T05:53:28.976Z,99550.31
2022-09-15T05:55:59.638Z,99549.13
2022-09-15T05:58:27.476Z,99547.16
2022-09-15T06:00:54.434Z,99550.13
2022-09-15T06:03:26.338Z,99547.53
2022-09-15T06:05:59.991Z,99560.06
2022-09-15T06:08:31.792Z,99555.78
2022-09-15T06:11:03.394Z,99560.28
2022-09-15T06:13:29.936Z,99564.25
2022-09-15T06:16:01.470Z,99559.13
2022-09-15T06:18:28.103Z,99567.59
2022-09-15T06:20:54.742Z,99562.59
2022-09-15T06:23:21.425Z,99563.22
2022-09-15T06:25:48.089Z,99566.53
2022-09-15T06:28:14.603Z,99577.03
2022-09-15T06:30:41.114Z,99569.31
2022-09-15T06:33:07.666Z,99580.22
2022-09-15T06:35:34.190Z,99583.13
2022-09-15T06:38:00.920Z,99582.88
2022-09-15T06:40:27.534Z,99587.78
2022-09-15T06:42:57.427Z,99586.47
2022-09-15T06:45:24.001Z,99587.28
2022-09-15T06:48:13.406Z,99594.50
2022-09-15T06:50:38.802Z,99596.66
2022-09-15T06:53:05.348Z,99590.50
2022-09-15T06:55:31.862Z,99594.28
2022-09-15T06:57:58.827Z,99601.78
2022-09-15T07:00:25.682Z,99602.69
2022-09-15T07:02:53.527Z,99610.19
2022-09-15T07:05:20.376Z,99604.19
2022-09-15T07:07:46.945Z,99605.28
2022-09-15T07:10:13.461Z,99612.19
2022-09-15T07:12:40.051Z,99606.88
2022-09-15T07:15:07.127Z,99611.13
2022-09-15T07:17:33.608Z,99618.44
2022-09-15T07:20:01.154Z,99612.31
2022-09-15T07:22:27.652Z,99620.09
2022-09-15T07:24:54.129Z,99617.59
2022-09-15T07:27:22.534Z,99627.56
2022-09-15T07:29:49.069Z,99621.28
2022-09-15T07:32:15.554Z,99629.09
2022-09-15T07:34:42.071Z,99637.94
2022-09-15T07:37:08.776Z,99638.41
2022-09-15T07:39:35.279Z,99637.19
2022-09-15T07:42:01.836Z,99635.38
2022-09-15T07:44:28.404Z,99642.94
2022-09-15T07:46:55.018Z,99642.66
2022-09-15T07:49:21.750Z,99643.78
2022-09-15T07:51:48.235Z,99638.03
2022-09-15T07:54:19.389Z,99645.25
2022-09-15T07:56:48.093Z,99643.88
2022-09-15T07:59:14.693Z,99654.22
2022-09-15T08:01:41.246Z,99656.41
2022-09-15T08:04:07.813Z,99657.66
2022-09-15T08:06:35.204Z,99663.22
2022-09-15T08:09:02.127Z,99664.00
2022-09-15T08:11:29.223Z,99664.38
2022-09-15T08:13:55.749Z,99671.00
2022-09-15T08:16:24.326Z,99672.88
2022-09-15T08:18:53.562Z,99669.22
2022-09-15T08:21:22.149Z,99678.59
2022-09-15T08:23:53.466Z,99684.16
2022-09-15T08:26:20.161Z,99686.28
2022-09-15T08:28:46.628Z,99687.63
2022-09-15T08:31:14.406Z,99688.75
2022-09-15T08:33:45.494Z,99696.44
2022-09-15T08:36:13.202Z,99698.88
2022-09-15T08:38:40.676Z,99702.25
2022-09-15T08:41:30.175Z,99701.69
2022-09-15T08:44:16.666Z,99708.28
2022-09-15T08:46:50.596Z,99709.34
2022-09-15T08:49:41.225Z,99715.66
2022-09-15T08:52:41.559Z,99719.78
2022-09-15T08:55:30.985Z,99710.94
2022-09-15T08:57:57.560Z,99715.81
2022-09-15T09:00:24.188Z,99710.72
2022-09-15T09:03:23.417Z,99711.34
2022-09-15T09:05:55.058Z,99710.78
2022-09-15T09:08:43.290Z,99710.81
2022-09-15T09:11:12.602Z,99715.56
2022-09-15T09:13:42.807Z,99716.66
2022-09-15T09:16:31.343Z,99711.72
2022-09-15T09:19:23.946Z,99714.44
2022-09-15T09:22:01.790Z,99715.34
2022-09-15T09:24:35.907Z,99710.88
2022-09-15T09:27:04.027Z,99719.34
2022-09-15T09:29:39.439Z,99724.13
2022-09-15T09:32:22.222Z,99719.25
2022-09-15T09:35:04.986Z,99712.38
2022-09-15T09:37:33.182Z,99712.69
2022-09-15T09:40:00.447Z,99711.72
2022-09-15T09:42:31.458Z,99727.25
2022-09-15T09:44:58.090Z,99721.59
2022-09-15T09:47:29.719Z,99719.56
2022-09-15T09:49:56.293Z,99727.91
2022-09-15T09:52:38.163Z,99727.31
2022-09-15T09:55:23.428Z,99722.47
2022-09-15T09:57:50.371Z,99725.56
2022-09-15T10:00:37.340Z,99729.19
2022-09-15T10:03:14.395Z,99723.84
2022-09-15T10:05:41.804Z,99722.63
2022-09-15T10:08:19.343Z,99723.47
2022-09-15T10:11:01.762Z,99727.28
2022-09-15T10:13:28.409Z,99721.97
2022-09-15T10:15:59.313Z,99715.47
2022-09-15T10:18:38.855Z,99712.97
2022-09-15T10:21:09.104Z,99716.88
2022-09-15T10:23:36.079Z,99711.25
2022-09-15T10:26:32.017Z,99712.16
2022-09-15T10:29:17.276Z,99707.16
2022-09-15T10:31:45.318Z,99716.03
2022-09-15T10:34:31.480Z,99710.59
2022-09-15T10:37:27.032Z,99716.13
2022-09-15T10:39:55.619Z,99713.19
2022-09-15T10:42:27.391Z,99730.22
2022-09-15T10:45:07.683Z,99718.66
2022-09-15T10:47:49.132Z,99725.31
2022-09-15T10:50:22.079Z,99720.59
2022-09-15T10:53:06.447Z,99717.16
2022-09-15T10:56:00.137Z,99718.91
2022-09-15T10:58:39.017Z,99718.72
2022-09-15T11:01:31.084Z,99713.88
2022-09-15T11:04:43.118Z,99723.47
2022-09-15T11:07:34.408Z,99713.59
2022-09-15T11:10:50.400Z,99717.09
2022-09-15T11:13:36.684Z,99719.47
2022-09-15T11:16:38.050Z,99718.81
2022-09-15T11:19:24.565Z,99723.34
2022-09-15T11:21:57.797Z,99726.88
2022-09-15T11:25:01.858Z,99726.19
2022-09-15T11:27:35.254Z,99733.56
2022-09-15T11:30:18.693Z,99731.31
2022-09-15T11:32:55.620Z,99736.91
2022-09-15T11:35:46.265Z,99744.66
2022-09-15T11:38:50.851Z,99752.53
2022-09-15T11:41:38.762Z,99752.53
2022-09-15T11:44:16.024Z,99746.38
2022-09-15T11:47:05.406Z,99753.16
2022-09-15T11:49:44.620Z,99751.97
2022-09-15T11:52:49.136Z,99747.56
2022-09-15T11:55:24.600Z,99744.25
2022-09-15T11:57:59.016Z,99754.09
2022-09-15T12:00:25.917Z,99748.63
2022-09-15T12:03:18.372Z,99750.75
2022-09-15T12:05:58.803Z,99746.31
2022-09-15T12:08:33.811Z,99743.50
2022-09-15T12:11:06.989Z,99737.81
2022-09-15T12:13:34.367Z,99745.91
2022-09-15T12:16:02.359Z,99740.09
2022-09-15T12:18:46.884Z,99742.25
2022-09-15T12:21:20.609Z,99737.63
2022-09-15T12:23:54.595Z,99740.88
2022-09-15T12:26:23.678Z,99742.25
2022-09-15T12:29:04.373Z,99741.09
2022-09-15T12:31:39.332Z,99739.22
2022-09-15T12:34:25.900Z,99735.06
2022-09-15T12:36:54.093Z,99739.66
2022-09-15T12:39:26.690Z,99742.75
2022-09-15T12:42:05.290Z,99751.47
2022-09-15T12:44:49.612Z,99753.38
2022-09-15T12:47:49.615Z,99767.38
2022-09-15T12:50:16.056Z,99761.59
2022-09-15T12:52:48.930Z,99754.47
2022-09-15T12:55:19.921Z,99771.38
2022-09-15T12:57:52.605Z,99773.00
2022-09-15T13:00:54.789Z,99774.19
2022-09-15T13:03:51.067Z,99777.19
2022-09-15T13:06:28.887Z,99778.81
2022-09-15T13:09:05.567Z,99778.47
2022-09-15T13:11:38.102Z,99779.84
2022-09-15T13:14:07.431Z,99771.78
2022-09-15T13:16:40.230Z,99782.75
2022-09-15T13:19:29.464Z,99773.81
2022-09-15T13:22:12.095Z,99767.91
2022-09-15T13:24:59.220Z,99773.69
2022-09-15T13:27:36.327Z,99782.94
2022-09-15T13:30:24.206Z,99778.38
2022-09-15T13:33:04.511Z,99766.94
2022-09-15T13:35:58.479Z,99774.28
2022-09-15T13:38:46.207Z,99767.69
2022-09-15T13:41:42.782Z,99767.38
2022-09-15T13:44:30.173Z,99758.66
2022-09-15T13:47:20.935Z,99768.13
2022-09-15T13:50:00.400Z,99775.50
2022-09-15T13:52:53.855Z,99770.63
2022-09-15T13:55:34.870Z,99777.25
2022-09-15T14:01:00.096Z,99769.13
2022-09-15T14:03:43.538Z,99763.50
2022-09-15T14:06:13.555Z,99753.31
2022-09-15T14:08:42.282Z,99763.47
2022-09-15T14:11:13.853Z,99766.25
2022-09-15T14:13:48.504Z,99765.78
2022-09-15T14:16:30.585Z,99769.53
2022-09-15T14:18:58.604Z,99772.91
2022-09-15T14:21:28.049Z,99769.16
2022-09-15T14:23:58.351Z,99770.81
2022-09-15T14:26:28.092Z,99764.69
2022-09-15T14:29:04.120Z,99773.72
2022-09-15T14:31:35.081Z,99753.78
2022-09-15T14:34:03.444Z,99754.91
2022-09-15T14:36:32.551Z,99758.22
2022-09-15T14:39:17.776Z,99773.41
2022-09-15T14:41:45.404Z,99757.41
2022-09-15T14:47:20.060Z,99759.94
2022-09-15T14:49:47.045Z,99754.91
2022-09-15T14:52:30.243Z,99762.00
2022-09-15T14:55:02.513Z,99758.22
2022-09-15T14:57:31.888Z,99764.38
2022-09-15T15:00:05.313Z,99762.66
2022-09-15T15:03:05.400Z,99756.09
2022-09-15T15:05:43.834Z,99757.63
2022-09-15T15:08:26.124Z,99761.25
2022-09-15T15:10:53.086Z,99756.41
2022-09-15T15:13:21.061Z,99756.38
2022-09-15T15:15:47.959Z,99754.41
2022-09-15T15:18:38.847Z,99761.00
2022-09-15T15:21:26.520Z,99753.03
2022-09-15T15:23:53.572Z,99754.13
2022-09-15T15:26:32.789Z,99752.84
2022-09-15T15:28:59.322Z,99756.53
2022-09-15T15:31:28.409Z,99760.41
2022-09-15T15:33:57.102Z,99749.31
2022-09-15T15:36:25.342Z,99752.94
2022-09-15T15:38:55.621Z,99753.72
2022-09-15T15:41:27.844Z,99753.41
2022-09-15T15:44:09.108Z,99760.41
2022-09-15T15:46:47.235Z,99759.63
2022-09-15T15:49:13.855Z,99762.31
2022-09-15T15:51:41.401Z,99765.19
2022-09-15T15:54:08.590Z,99776.72
2022-09-15T15:56:38.050Z,99765.13
2022-09-15T15:59:05.731Z,99767.94
2022-09-15T16:01:33.227Z,99772.03
2022-09-15T16:03:59.809Z,99767.94
2022-09-15T16:06:26.473Z,99775.38
2022-09-15T16:08:55.163Z,99774.50
2022-09-15T16:11:21.660Z,99782.63
2022-09-15T16:13:48.311Z,99782.00
2022-09-15T16:16:18.097Z,99782.22
2022-09-15T16:18:44.861Z,99782.00
2022-09-15T16:21:19.650Z,99775.88
2022-09-15T16:23:47.212Z,99778.00
2022-09-15T16:26:16.379Z,99784.03
2022-09-15T16:28:43.123Z,99774.75
2022-09-15T16:31:14.538Z,99787.19
2022-09-15T16:33:42.973Z,99779.63
2022-09-15T16:36:14.656Z,99781.09
2022-09-15T16:38:42.548Z,99791.56
2022-09-15T16:41:14.682Z,99790.38
2022-09-15T16:43:41.761Z,99792.75
2022-09-15T16:46:09.749Z,99796.13
2022-09-15T16:48:36.675Z,99790.53
2022-09-15T16:53:53.844Z,99789.03
2022-09-15T16:56:20.474Z,99786.81
2022-09-15T16:58:46.917Z,99784.88
2022-09-15T17:01:18.636Z,99785.13
2022-09-15T17:03:45.433Z,99793.75
2022-09-15T17:06:14.425Z,99796.69
2022-09-15T17:08:41.304Z,99793.50
2022-09-15T17:11:16.500Z,99794.19
2022-09-15T17:13:44.086Z,99785.38
2022-09-15T17:16:15.240Z,99792.81
2022-09-15T17:18:41.786Z,99789.50
2022-09-15T17:21:11.291Z,99793.59
2022-09-15T17:23:51.208Z,99797.47
2022-09-15T17:26:20.745Z,99802.25
2022-09-15T17:28:47.545Z,99800.63
2022-09-15T17:31:20.231Z,99797.63
2022-09-15T17:33:50.769Z,99800.00
2022-09-15T17:36:17.588Z,99798.66
2022-09-15T17:38:48.834Z,99795.88
2022-09-15T17:41:20.079Z,99798.97
2022-09-15T17:43:47.227Z,99801.81
2022-09-15T17:46:16.953Z,99804.91
2022-09-15T17:48:43.956Z,99813.69
2022-09-15T17:51:15.979Z,99812.72
2022-09-15T17:53:42.663Z,99812.97
2022-09-15T17:56:09.210Z,99803.78
2022-09-15T17:58:35.755Z,99813.47
2022-09-15T18:01:03.265Z,99810.28
2022-09-15T18:03:34.629Z,99820.19
2022-09-15T18:06:08.270Z,99829.00
2022-09-15T18:08:38.254Z,99822.16
2022-09-15T18:11:05.955Z,99822.16
2022-09-15T18:13:37.518Z,99837.41
2022-09-15T18:16:11.271Z,99831.69
2022-09-15T18:18:39.868Z,99839.38
2022-09-15T18:21:18.161Z,99835.88
2022-09-15T18:23:45.072Z,99849.78
2022-09-15T18:26:11.587Z,99846.06
2022-09-15T18:28:38.096Z,99857.34
2022-09-15T18:31:04.646Z,99853.38
2022-09-15T18:33:31.329Z,99860.72
2022-09-15T18:36:01.354Z,99864.31
2022-09-15T18:38:28.008Z,99866.34
2022-09-15T18:40:56.421Z,99875.09
2022-09-15T18:43:25.150Z,99870.25
2022-09-15T18:45:53.208Z,99879.53
2022-09-15T18:48:19.778Z,99883.41
2022-09-15T18:50:46.474Z,99895.44
2022-09-15T18:53:13.398Z,99904.19
2022-09-15T18:55:41.779Z,99913.47
2022-09-15T18:58:21.934Z,99909.25
2022-09-15T19:00:51.874Z,99904.31
2022-09-15T19:03:18.430Z,99912.31
2022-09-15T19:05:45.913Z,99895.88
2022-09-15T19:08:12.745Z,99902.50
2022-09-15T19:10:42.085Z,99893.75
2022-09-15T19:13:11.193Z,99883.16
2022-09-15T19:15:40.540Z,99892.41
2022-09-15T19:18:07.186Z,99892.81
2022-09-15T19:20:33.678Z,99892.13
2022-09-15T19:23:00.168Z,99895.34
2022-09-15T19:25:27.762Z,99895.56
2022-09-15T19:27:54.277Z,99900.78
2022-09-15T19:30:20.879Z,99902.66
2022-09-15T19:32:47.476Z,99904.47
2022-09-15T19:35:14.507Z,99903.28
2022-09-15T19:37:42.134Z,99906.75
2022-09-15T19:40:12.087Z,99899.94
2022-09-15T19:42:39.232Z,99908.25
2022-09-15T19:45:07.422Z,99901.31
2022-09-15T19:47:34.343Z,99898.78
2022-09-15T19:50:01.105Z,99898.03
2022-09-15T19:52:28.334Z,99901.94
2022-09-15T19:54:55.000Z,99907.00
2022-09-15T19:57:22.540Z,99910.66
2022-09-15T19:59:49.247Z,99910.47
2022-09-15T20:02:15.859Z,99908.00
2022-09-15T20:04:42.726Z,99903.16
2022-09-15T20:07:09.325Z,99908.13
2022-09-15T20:09:36.166Z,99914.09
2022-09-15T20:12:03.356Z,99911.09
2022-09-15T20:14:32.012Z,99914.09
2022-09-15T20:17:01.096Z,99916.25
2022-09-15T20:19:28.546Z,99909.28
2022-09-15T20:21:55.197Z,99910.94
2022-09-15T20:24:22.212Z,99904.19
2022-09-15T20:26:48.879Z,99919.97
2022-09-15T20:29:15.883Z,99910.06
2022-09-15T20:31:42.498Z,99920.41
2022-09-15T20:34:09.196Z,99905.41
2022-09-15T20:36:38.718Z,99921.09
2022-09-15T20:39:12.760Z,99922.44
2022-09-15T20:41:40.525Z,99925.34
2022-09-15T20:44:10.816Z,99922.00
2022-09-15T20:46:46.041Z,99936.56
2022-09-15T20:49:12.636Z,99934.22
2022-09-15T20:51:39.200Z,99932.25
2022-09-15T20:54:05.801Z,99935.19
2022-09-15T20:56:34.827Z,99937.41
2022-09-15T20:59:02.432Z,99934.72
2022-09-15T21:01:36.551Z,99935.56
2022-09-15T21:04:03.590Z,99932.72
2022-09-15T21:06:31.525Z,99930.00
2022-09-15T21:08:58.499Z,99935.72
2022-09-15T21:11:27.393Z,99940.66
2022-09-15T21:13:54.982Z,99936.00
2022-09-15T21:16:24.236Z,99928.78
2022-09-15T21:18:51.699Z,99927.66
2022-09-15T21:21:23.304Z,99924.97
2022-09-15T21:23:55.773Z,99931.94
2022-09-15T21:26:24.401Z,99923.06
2022-09-15T21:28:51.596Z,99939.34
2022-09-15T21:31:23.808Z,99948.44
2022-09-15T21:33:51.980Z,99942.88
2022-09-15T21:36:23.818Z,99945.31
2022-09-15T21:38:51.963Z,99953.44
2022-09-15T21:41:21.372Z,99958.22
2022-09-15T21:43:48.867Z,99954.53
2022-09-15T21:46:20.287Z,99950.19
2022-09-15T21:48:47.988Z,99955.63
2022-09-15T21:51:23.979Z,99944.69
2022-09-15T21:53:52.052Z,99958.13
2022-09-15T21:56:18.614Z,99959.97
2022-09-15T21:58:45.688Z,99960.03
2022-09-15T22:01:23.647Z,99962.03
2022-09-15T22:03:56.743Z,99969.09
2022-09-15T22:06:30.161Z,99959.03
2022-09-15T22:09:00.577Z,99966.13
2022-09-15T22:11:27.466Z,99962.38
2022-09-15T22:13:54.344Z,99962.78
2022-09-15T22:16:23.684Z,99970.13
2022-09-15T22:18:51.327Z,99967.41
2022-09-15T22:21:19.504Z,99963.19
2022-09-15T22:23:47.525Z,99960.38
2022-09-15T22:26:17.256Z,99967.59
2022-09-15T22:28:44.351Z,99969.88
2022-09-15T22:31:12.638Z,99964.69
2022-09-15T22:33:41.179Z,99959.28
2022-09-15T22:36:12.112Z,99966.22
2022-09-15T22:38:38.946Z,99961.28
2022-09-15T22:41:09.064Z,99961.63
2022-09-15T22:43:36.697Z,99960.75
2022-09-15T22:46:03.415Z,99962.03
2022-09-15T22:48:30.231Z,99959.63
2022-09-15T22:50:57.143Z,99962.34
2022-09-15T22:53:23.897Z,99964.50
2022-09-15T22:55:50.921Z,99970.59
2022-09-15T22:58:17.754Z,99972.44
2022-09-15T23:00:44.383Z,99965.41
2022-09-15T23:03:11.759Z,99967.06
2022-09-15T23:05:38.261Z,99974.44
2022-09-15T23:08:04.876Z,99975.28
2022-09-15T23:10:32.202Z,99973.59
2022-09-15T23:12:59.290Z,99969.22
2022-09-15T23:15:25.915Z,99975.53
2022-09-15T23:17:52.426Z,99969.78
2022-09-15T23:20:18.973Z,99971.72
2022-09-15T23:22:45.544Z,99975.84
2022-09-15T23:25:11.976Z,99976.78
2022-09-15T23:27:38.472Z,99976.28
2022-09-15T23:30:05.343Z,99981.69
2022-09-15T23:32:31.881Z,99974.81
2022-09-15T23:34:58.353Z,99981.66
2022-09-15T23:37:24.826Z,99977.41
2022-09-15T23:39:52.254Z,99972.00
2022-09-15T23:42:19.184Z,99967.91
2022-09-15T23:44:45.782Z,99982.00
2022-09-15T23:47:12.234Z,99970.97
2022-09-15T23:49:38.694Z,99969.88
2022-09-15T23:52:05.155Z,99977.19
2022-09-15T23:54:31.607Z,99973.03
2022-09-15T23:56:58.059Z,99971.88
2022-09-15T23:59:24.679Z,99968.38
